Time;durP1;ratioP1;P1;durP2;ratioP2;P2;SDS_P1;SDS_P2;PMS_P1;PMS_P2;Temp;Humidity;BMP_temperature;BMP_pressure;BME280_temperature;BME280_humidity;BME280_pressure;Samples;Min_cycle;Max_cycle;Signal;HPM_P1;HPM_P2
2022/07/27 00:01:22;;;;;;;0.10;0.10;;;;;;;;;;5061650;28;20025;-82
2022/07/27 00:03:49;;;;;;;0.20;0.20;;;;;;;;;;5052156;28;20316;-80
2022/07/27 00:06:15;;;;;;;0.10;0.10;;;;;;;;;;5054476;28;20438;-83
2022/07/27 00:08:43;;;;;;;0.50;0.20;;;;;;;;;;5050037;28;20037;-84
2022/07/27 00:11:09;;;;;;;0.00;0.00;;;;;;;;;;5050149;28;20033;-81
2022/07/27 00:13:37;;;;;;;0.75;0.30;;;;;;;;;;5048437;28;20032;-81
2022/07/27 00:16:02;;;;;;;5.18;0.43;;;;;;;;;;5047601;28;20513;-81
2022/07/27 00:18:28;;;;;;;0.20;0.20;;;;;;;;;;5051572;28;20124;-82
2022/07/27 00:20:53;;;;;;;0.20;0.20;;;;;;;;;;5054985;28;20043;-82
2022/07/27 00:23:18;;;;;;;0.17;0.17;;;;;;;;;;5051569;28;20420;-82
2022/07/27 00:25:44;;;;;;;1.17;0.20;;;;;;;;;;5050971;28;20029;-82
2022/07/27 00:28:09;;;;;;;0.30;0.20;;;;;;;;;;5050265;28;20040;-81
2022/07/27 00:30:35;;;;;;;0.00;0.00;;;;;;;;;;5053570;28;20020;-81
2022/07/27 00:33:00;;;;;;;0.25;0.22;;;;;;;;;;5052060;28;20105;-81
2022/07/27 00:35:25;;;;;;;0.38;0.10;;;;;;;;;;5035323;28;20379;-80
2022/07/27 00:37:53;;;;;;;1.25;0.20;;;;;;;;;;5053023;28;20029;-80
2022/07/27 00:40:18;;;;;;;0.35;0.35;;;;;;;;;;5055449;28;20112;-81
2022/07/27 00:42:46;;;;;;;3.20;0.65;;;;;;;;;;5056731;28;20371;-81
2022/07/27 00:45:13;;;;;;;0.47;0.47;;;;;;;;;;5055378;28;20330;-81
2022/07/27 00:47:39;;;;;;;0.40;0.40;;;;;;;;;;5056005;28;20083;-80
2022/07/27 00:50:05;;;;;;;0.10;0.10;;;;;;;;;;5054917;28;20477;-81
2022/07/27 00:52:30;;;;;;;0.22;0.22;;;;;;;;;;5053492;28;20029;-81
2022/07/27 00:54:57;;;;;;;0.10;0.10;;;;;;;;;;5053394;28;20081;-81
2022/07/27 00:57:23;;;;;;;2.90;0.20;;;;;;;;;;5056125;28;20025;-81
2022/07/27 00:59:51;;;;;;;0.25;0.15;;;;;;;;;;5041049;28;20028;-81
2022/07/27 01:02:16;;;;;;;4.20;0.55;;;;;;;;;;5055232;28;20072;-81
2022/07/27 01:04:41;;;;;;;1.58;0.20;;;;;;;;;;5054551;28;20118;-81
2022/07/27 01:07:09;;;;;;;0.08;0.08;;;;;;;;;;5054617;28;20591;-80
2022/07/27 01:09:57;;;;;;;0.55;0.30;;;;;;;;;;5056156;28;20107;-80
2022/07/27 01:12:27;;;;;;;0.20;0.20;;;;;;;;;;5044809;28;20032;-82
2022/07/27 01:14:56;;;;;;;0.77;0.22;;;;;;;;;;5055355;28;20508;-82
2022/07/27 01:17:23;;;;;;;0.20;0.10;;;;;;;;;;5052679;28;20029;-80
2022/07/27 01:19:48;;;;;;;0.45;0.45;;;;;;;;;;5055124;28;20032;-80
2022/07/27 01:22:16;;;;;;;1.48;0.28;;;;;;;;;;5051054;28;20017;-81
2022/07/27 01:24:41;;;;;;;1.50;0.20;;;;;;;;;;5055247;28;20040;-80
2022/07/27 01:27:10;;;;;;;0.10;0.10;;;;;;;;;;5054649;28;20029;-80
2022/07/27 01:29:37;;;;;;;0.15;0.15;;;;;;;;;;5055678;28;20052;-82
2022/07/27 01:32:03;;;;;;;0.10;0.05;;;;;;;;;;5059690;28;20021;-81
2022/07/27 01:34:32;;;;;;;0.20;0.20;;;;;;;;;;5060290;28;20031;-81
2022/07/27 01:36:59;;;;;;;1.25;0.30;;;;;;;;;;5063768;28;20044;-80
2022/07/27 01:39:24;;;;;;;0.10;0.10;;;;;;;;;;5063030;28;20446;-81
2022/07/27 01:41:49;;;;;;;0.00;0.00;;;;;;;;;;5055557;28;20051;-81
2022/07/27 01:44:15;;;;;;;1.20;0.30;;;;;;;;;;5056424;28;20569;-80
2022/07/27 01:46:42;;;;;;;2.50;0.40;;;;;;;;;;5054403;28;20025;-82
2022/07/27 01:49:08;;;;;;;0.10;0.10;;;;;;;;;;5057786;28;20036;-82
2022/07/27 01:51:33;;;;;;;3.10;0.22;;;;;;;;;;5055321;28;20029;-81
2022/07/27 01:53:58;;;;;;;0.43;0.40;;;;;;;;;;5055572;28;20497;-81
2022/07/27 01:56:24;;;;;;;0.32;0.10;;;;;;;;;;5032466;28;20469;-83
2022/07/27 01:58:49;;;;;;;0.45;0.45;;;;;;;;;;5056736;28;20029;-82
2022/07/27 02:01:15;;;;;;;0.52;0.45;;;;;;;;;;5053307;28;20099;-82
2022/07/27 02:03:40;;;;;;;0.15;0.15;;;;;;;;;;5053673;28;20449;-82
2022/07/27 02:06:06;;;;;;;0.10;0.10;;;;;;;;;;5052698;28;20453;-82
2022/07/27 02:08:33;;;;;;;0.13;0.13;;;;;;;;;;5054351;28;20029;-82
2022/07/27 02:13:43;;;;;;;0.20;0.20;;;;;;;;;;5051347;28;20106;-82
2022/07/27 02:16:08;;;;;;;1.45;0.10;;;;;;;;;;5054669;28;20032;-82
2022/07/27 02:18:36;;;;;;;4.57;0.63;;;;;;;;;;5053959;28;20029;-82
2022/07/27 02:21:03;;;;;;;0.10;0.10;;;;;;;;;;5055538;28;20115;-81
2022/07/27 02:23:30;;;;;;;0.45;0.45;;;;;;;;;;5037957;28;20079;-82
2022/07/27 02:25:58;;;;;;;0.28;0.20;;;;;;;;;;5052441;28;20104;-80
2022/07/27 02:28:25;;;;;;;0.10;0.10;;;;;;;;;;5050196;28;20029;-80
2022/07/27 02:30:51;;;;;;;0.10;0.10;;;;;;;;;;5053260;28;20025;-83
2022/07/27 02:33:18;;;;;;;0.28;0.20;;;;;;;;;;5055233;28;20023;-80
2022/07/27 02:35:44;;;;;;;0.63;0.25;;;;;;;;;;5053814;28;20025;-83
2022/07/27 02:38:09;;;;;;;0.20;0.20;;;;;;;;;;5054701;28;20362;-83
2022/07/27 02:40:34;;;;;;;0.10;0.10;;;;;;;;;;5054557;28;20029;-83
2022/07/27 02:43:02;;;;;;;0.28;0.28;;;;;;;;;;5054163;28;20086;-83
2022/07/27 02:45:27;;;;;;;0.63;0.28;;;;;;;;;;5058439;28;20207;-82
2022/07/27 02:47:53;;;;;;;0.10;0.10;;;;;;;;;;5051053;28;20529;-82
2022/07/27 02:50:18;;;;;;;0.40;0.40;;;;;;;;;;5054777;28;20319;-81
2022/07/27 02:52:44;;;;;;;0.30;0.20;;;;;;;;;;5055507;28;20081;-82
2022/07/27 02:55:09;;;;;;;0.00;0.00;;;;;;;;;;5051002;28;20036;-81
2022/07/27 02:57:39;;;;;;;0.77;0.60;;;;;;;;;;5035330;28;20033;-82
2022/07/27 03:00:10;;;;;;;0.38;0.28;;;;;;;;;;5067880;28;20077;-81
2022/07/27 03:02:38;;;;;;;0.88;0.55;;;;;;;;;;5053427;28;20521;-82
2022/07/27 03:05:04;;;;;;;1.27;0.43;;;;;;;;;;5053309;28;20036;-79
2022/07/27 03:07:30;;;;;;;0.10;0.10;;;;;;;;;;5046908;28;20024;-79
2022/07/27 03:09:57;;;;;;;1.15;0.35;;;;;;;;;;5053162;28;20028;-79
2022/07/27 03:12:23;;;;;;;0.22;0.10;;;;;;;;;;5054092;28;20024;-81
2022/07/27 03:14:48;;;;;;;1.58;0.30;;;;;;;;;;5054322;28;20043;-81
2022/07/27 03:17:14;;;;;;;1.08;0.63;;;;;;;;;;5053420;28;20440;-81
2022/07/27 03:19:39;;;;;;;0.65;0.20;;;;;;;;;;5053992;28;20591;-81
2022/07/27 03:22:07;;;;;;;1.70;0.70;;;;;;;;;;5053670;28;20025;-81
2022/07/27 03:24:32;;;;;;;0.40;0.22;;;;;;;;;;5055057;28;20025;-82
2022/07/27 03:26:57;;;;;;;4.85;0.30;;;;;;;;;;5055076;28;20470;-82
2022/07/27 03:29:23;;;;;;;0.10;0.10;;;;;;;;;;5056328;28;20405;-82
2022/07/27 03:31:50;;;;;;;0.55;0.20;;;;;;;;;;5055700;28;20047;-82
2022/07/27 03:34:19;;;;;;;12.10;1.70;;;;;;;;;;5051649;28;20116;-80
2022/07/27 03:36:45;;;;;;;0.10;0.10;;;;;;;;;;5053134;28;20021;-79
2022/07/27 03:39:11;;;;;;;0.85;0.30;;;;;;;;;;5052466;28;20339;-80
2022/07/27 03:41:39;;;;;;;0.20;0.20;;;;;;;;;;5052476;28;20028;-80
2022/07/27 03:44:05;;;;;;;1.17;0.20;;;;;;;;;;5053639;28;20358;-82
2022/07/27 03:46:30;;;;;;;0.75;0.35;;;;;;;;;;5052428;28;20036;-80
2022/07/27 03:48:56;;;;;;;0.30;0.25;;;;;;;;;;5050497;28;20188;-82
2022/07/27 03:51:22;;;;;;;0.10;0.10;;;;;;;;;;5052030;28;20047;-80
2022/07/27 03:53:47;;;;;;;0.77;0.75;;;;;;;;;;5051742;28;20464;-82
2022/07/27 03:56:13;;;;;;;0.52;0.47;;;;;;;;;;5053275;28;20098;-81
2022/07/27 03:58:41;;;;;;;0.75;0.50;;;;;;;;;;5052088;28;20029;-80
2022/07/27 04:01:06;;;;;;;0.22;0.15;;;;;;;;;;5050645;28;20025;-82
2022/07/27 04:03:33;;;;;;;0.28;0.28;;;;;;;;;;5053096;28;20036;-82
2022/07/27 04:05:59;;;;;;;0.63;0.40;;;;;;;;;;5051040;28;20115;-83
2022/07/27 04:08:27;;;;;;;1.38;0.57;;;;;;;;;;5052273;28;20503;-80
2022/07/27 04:10:52;;;;;;;0.47;0.35;;;;;;;;;;5051069;28;20106;-82
2022/07/27 04:13:20;;;;;;;0.35;0.20;;;;;;;;;;5056663;28;20045;-81
2022/07/27 04:15:48;;;;;;;0.25;0.15;;;;;;;;;;5057375;28;20024;-83
2022/07/27 04:18:16;;;;;;;0.25;0.15;;;;;;;;;;5057209;28;20028;-82
2022/07/27 04:20:42;;;;;;;0.20;0.20;;;;;;;;;;5055691;28;20052;-82
2022/07/27 04:23:07;;;;;;;1.70;0.45;;;;;;;;;;5059647;28;20466;-83
2022/07/27 04:25:32;;;;;;;0.63;0.57;;;;;;;;;;5055513;28;20036;-81
2022/07/27 04:27:58;;;;;;;0.30;0.30;;;;;;;;;;5053339;28;20029;-83
2022/07/27 04:30:25;;;;;;;0.75;0.75;;;;;;;;;;5057493;28;20029;-82
2022/07/27 04:32:51;;;;;;;1.48;1.38;;;;;;;;;;5057130;28;20029;-80
2022/07/27 04:35:16;;;;;;;3.80;0.60;;;;;;;;;;5055259;28;20094;-82
2022/07/27 04:37:42;;;;;;;0.45;0.45;;;;;;;;;;5057732;28;20044;-83
2022/07/27 04:40:09;;;;;;;0.40;0.40;;;;;;;;;;5054287;28;20068;-83
2022/07/27 04:42:34;;;;;;;0.45;0.40;;;;;;;;;;5054602;28;20482;-82
2022/07/27 04:45:00;;;;;;;0.80;0.52;;;;;;;;;;5059952;28;20037;-82
2022/07/27 04:47:25;;;;;;;0.52;0.50;;;;;;;;;;5056267;28;20546;-80
2022/07/27 04:49:50;;;;;;;3.38;0.47;;;;;;;;;;5053688;28;20031;-81
2022/07/27 04:52:16;;;;;;;0.80;0.52;;;;;;;;;;5056803;28;20056;-80
2022/07/27 04:54:43;;;;;;;0.47;0.47;;;;;;;;;;5055604;28;20120;-81
2022/07/27 04:57:09;;;;;;;3.60;1.48;;;;;;;;;;5039078;28;20900;-80
2022/07/27 04:59:34;;;;;;;1.30;0.40;;;;;;;;;;5056806;28;20035;-79
2022/07/27 05:01:59;;;;;;;1.08;0.52;;;;;;;;;;5038518;28;20055;-81
2022/07/27 05:04:25;;;;;;;2.75;0.40;;;;;;;;;;5055702;28;20106;-82
2022/07/27 05:06:52;;;;;;;0.60;0.52;;;;;;;;;;5055650;28;20033;-81
2022/07/27 05:09:18;;;;;;;0.68;0.50;;;;;;;;;;5055589;28;20098;-83
2022/07/27 05:11:43;;;;;;;0.40;0.30;;;;;;;;;;5055621;28;20033;-79
2022/07/27 05:14:08;;;;;;;0.80;0.55;;;;;;;;;;5055424;28;20112;-80
2022/07/27 05:16:34;;;;;;;0.28;0.20;;;;;;;;;;5055703;28;20029;-81
2022/07/27 05:19:01;;;;;;;1.35;1.10;;;;;;;;;;5056238;28;20039;-81
2022/07/27 05:21:29;;;;;;;1.85;0.77;;;;;;;;;;5054900;28;20025;-82
2022/07/27 05:23:57;;;;;;;0.93;0.47;;;;;;;;;;5053756;28;20021;-82
2022/07/27 05:26:22;;;;;;;2.70;1.23;;;;;;;;;;5054602;28;20077;-81
2022/07/27 05:28:47;;;;;;;2.47;1.08;;;;;;;;;;5055147;28;20109;-81
2022/07/27 05:31:13;;;;;;;0.35;0.20;;;;;;;;;;5055693;28;20029;-82
2022/07/27 05:33:39;;;;;;;0.82;0.65;;;;;;;;;;5057183;28;20029;-82
2022/07/27 05:36:06;;;;;;;0.95;0.65;;;;;;;;;;5053192;28;20098;-81
2022/07/27 05:38:37;;;;;;;10.63;1.23;;;;;;;;;;5050071;28;20029;-81
2022/07/27 05:41:06;;;;;;;0.50;0.30;;;;;;;;;;5052445;28;20047;-81
2022/07/27 05:43:31;;;;;;;0.22;0.22;;;;;;;;;;5051729;28;20029;-83
2022/07/27 05:45:56;;;;;;;0.75;0.70;;;;;;;;;;5055312;28;20102;-82
2022/07/27 05:48:22;;;;;;;0.70;0.40;;;;;;;;;;5052347;28;20032;-82
2022/07/27 05:50:47;;;;;;;1.30;0.77;;;;;;;;;;5050657;28;20373;-82
2022/07/27 05:53:12;;;;;;;0.88;0.50;;;;;;;;;;5053975;28;20024;-84
2022/07/27 05:55:38;;;;;;;0.32;0.32;;;;;;;;;;5035681;28;20116;-81
2022/07/27 05:58:03;;;;;;;0.20;0.20;;;;;;;;;;5053954;28;20389;-81
2022/07/27 06:00:29;;;;;;;0.30;0.30;;;;;;;;;;5055381;28;20068;-81
2022/07/27 06:02:54;;;;;;;0.98;0.60;;;;;;;;;;5050639;28;20902;-81
2022/07/27 06:05:22;;;;;;;0.52;0.30;;;;;;;;;;5047409;28;20320;-79
2022/07/27 06:08:01;;;;;;;3.75;0.40;;;;;;;;;;5047373;28;20024;-80
2022/07/27 06:10:31;;;;;;;0.38;0.30;;;;;;;;;;5050959;28;20024;-80
2022/07/27 06:12:56;;;;;;;1.42;1.23;;;;;;;;;;5049887;28;20017;-78
2022/07/27 06:15:22;;;;;;;0.20;0.20;;;;;;;;;;5046467;28;20082;-80
2022/07/27 06:17:51;;;;;;;1.13;0.63;;;;;;;;;;5046858;28;20473;-81
2022/07/27 06:20:17;;;;;;;0.10;0.10;;;;;;;;;;5052981;28;20105;-82
2022/07/27 06:22:48;;;;;;;0.45;0.43;;;;;;;;;;5054800;28;20047;-82
2022/07/27 06:25:14;;;;;;;0.25;0.20;;;;;;;;;;5054518;28;20124;-82
2022/07/27 06:27:40;;;;;;;3.47;0.38;;;;;;;;;;5054751;28;20112;-82
2022/07/27 06:30:09;;;;;;;1.35;0.20;;;;;;;;;;5053591;28;20116;-82
2022/07/27 06:32:34;;;;;;;0.00;0.00;;;;;;;;;;5041421;28;20024;-82
2022/07/27 06:35:03;;;;;;;0.82;0.50;;;;;;;;;;5048642;28;20086;-83
2022/07/27 06:37:30;;;;;;;0.38;0.30;;;;;;;;;;5053542;28;20049;-81
2022/07/27 06:40:00;;;;;;;0.40;0.20;;;;;;;;;;5054735;28;20071;-82
2022/07/27 06:42:26;;;;;;;0.20;0.20;;;;;;;;;;5053516;28;20370;-82
2022/07/27 06:44:52;;;;;;;0.77;0.77;;;;;;;;;;5053788;28;20166;-81
2022/07/27 06:47:18;;;;;;;0.20;0.20;;;;;;;;;;5054314;28;20021;-81
2022/07/27 06:49:43;;;;;;;0.10;0.10;;;;;;;;;;5055281;28;20427;-81
2022/07/27 06:52:10;;;;;;;0.22;0.15;;;;;;;;;;5053736;28;20370;-82
2022/07/27 06:54:39;;;;;;;0.32;0.30;;;;;;;;;;5053992;28;20167;-81
2022/07/27 06:57:06;;;;;;;0.40;0.40;;;;;;;;;;5051295;28;20135;-81
2022/07/27 06:59:33;;;;;;;0.65;0.30;;;;;;;;;;5050998;28;20044;-81
2022/07/27 07:02:01;;;;;;;0.10;0.10;;;;;;;;;;5052335;28;20110;-81
2022/07/27 07:04:26;;;;;;;0.50;0.50;;;;;;;;;;5047407;28;20083;-80
2022/07/27 07:06:52;;;;;;;0.93;0.63;;;;;;;;;;5051874;28;20032;-81
2022/07/27 07:09:17;;;;;;;0.17;0.17;;;;;;;;;;5054242;28;20036;-82
2022/07/27 07:11:46;;;;;;;0.15;0.10;;;;;;;;;;5069362;28;20029;-80
2022/07/27 07:14:16;;;;;;;0.28;0.20;;;;;;;;;;5054023;28;20044;-81
2022/07/27 07:16:41;;;;;;;0.57;0.20;;;;;;;;;;5051892;28;20012;-81
2022/07/27 07:19:06;;;;;;;1.20;0.32;;;;;;;;;;5051133;28;20031;-81
2022/07/27 07:21:32;;;;;;;0.00;0.00;;;;;;;;;;5053367;28;20049;-81
2022/07/27 07:23:57;;;;;;;0.10;0.00;;;;;;;;;;5050558;28;20039;-81
2022/07/27 07:26:22;;;;;;;0.10;0.10;;;;;;;;;;5054375;28;20075;-78
2022/07/27 07:28:48;;;;;;;0.38;0.10;;;;;;;;;;5054980;28;20033;-82
2022/07/27 07:31:18;;;;;;;0.00;0.00;;;;;;;;;;5053820;28;20040;-81
2022/07/27 07:33:44;;;;;;;0.00;0.00;;;;;;;;;;5048300;28;20025;-80
2022/07/27 07:36:11;;;;;;;0.05;0.05;;;;;;;;;;5036099;28;20041;-83
2022/07/27 07:38:37;;;;;;;0.20;0.20;;;;;;;;;;5053346;28;20029;-80
2022/07/27 07:41:23;;;;;;;1.15;0.30;;;;;;;;;;5052532;28;20039;-81
2022/07/27 07:44:00;;;;;;;1.55;0.47;;;;;;;;;;5053305;28;20112;-80
2022/07/27 07:46:44;;;;;;;0.38;0.38;;;;;;;;;;5053151;28;20040;-81
2022/07/27 07:49:23;;;;;;;1.85;0.15;;;;;;;;;;5047981;28;20098;-81
2022/07/27 07:51:48;;;;;;;0.20;0.20;;;;;;;;;;5054395;28;20035;-81
2022/07/27 07:54:14;;;;;;;0.05;0.00;;;;;;;;;;5052384;28;20020;-81
2022/07/27 07:56:39;;;;;;;0.00;0.00;;;;;;;;;;5054136;28;20024;-79
2022/07/27 07:59:04;;;;;;;0.10;0.10;;;;;;;;;;5053910;28;20028;-80
2022/07/27 08:01:30;;;;;;;0.13;0.13;;;;;;;;;;5048502;28;20037;-81
2022/07/27 08:03:55;;;;;;;0.08;0.03;;;;;;;;;;5052477;28;20439;-82
2022/07/27 08:06:21;;;;;;;0.10;0.10;;;;;;;;;;5054035;28;20053;-81
2022/07/27 08:08:46;;;;;;;0.10;0.10;;;;;;;;;;5053361;28;20100;-80
2022/07/27 08:11:12;;;;;;;0.10;0.10;;;;;;;;;;5052368;28;20108;-81
2022/07/27 08:13:37;;;;;;;0.20;0.20;;;;;;;;;;5068667;28;20024;-81
2022/07/27 08:16:02;;;;;;;0.10;0.10;;;;;;;;;;5051954;28;20471;-82
2022/07/27 08:18:28;;;;;;;0.10;0.10;;;;;;;;;;5062946;28;20025;-82
2022/07/27 08:20:53;;;;;;;0.13;0.13;;;;;;;;;;5053603;28;20021;-80
2022/07/27 08:23:21;;;;;;;0.30;0.30;;;;;;;;;;5051482;28;20404;-81
2022/07/27 08:25:46;;;;;;;0.30;0.13;;;;;;;;;;5052922;28;20024;-82
2022/07/27 08:28:12;;;;;;;0.03;0.03;;;;;;;;;;5053900;28;20035;-80
2022/07/27 08:30:40;;;;;;;0.65;0.13;;;;;;;;;;5052580;28;20031;-81
2022/07/27 08:33:05;;;;;;;1.08;0.38;;;;;;;;;;5053042;28;20103;-81
2022/07/27 08:35:32;;;;;;;0.17;0.17;;;;;;;;;;5053598;28;20116;-82
2022/07/27 08:37:59;;;;;;;1.00;0.15;;;;;;;;;;5053837;28;20033;-82
2022/07/27 08:40:25;;;;;;;0.10;0.10;;;;;;;;;;5053642;28;20068;-82
2022/07/27 08:42:51;;;;;;;0.20;0.20;;;;;;;;;;5052826;28;20340;-78
2022/07/27 08:45:20;;;;;;;0.43;0.30;;;;;;;;;;5050394;28;20025;-81
2022/07/27 08:47:46;;;;;;;0.03;0.03;;;;;;;;;;5053824;28;20454;-79
2022/07/27 08:50:23;;;;;;;0.05;0.05;;;;;;;;;;5051632;28;20040;-82
2022/07/27 08:53:04;;;;;;;0.10;0.10;;;;;;;;;;5051641;28;20025;-82
2022/07/27 08:55:32;;;;;;;3.45;1.05;;;;;;;;;;5051126;28;20041;-82
2022/07/27 08:57:58;;;;;;;0.63;0.10;;;;;;;;;;5049522;28;20033;-80
2022/07/27 09:00:24;;;;;;;0.10;0.10;;;;;;;;;;5058410;28;20017;-81
2022/07/27 09:02:50;;;;;;;0.80;0.40;;;;;;;;;;5056259;28;20089;-79
2022/07/27 09:05:18;;;;;;;0.08;0.08;;;;;;;;;;5056459;28;20058;-79
2022/07/27 09:07:43;;;;;;;1.08;0.10;;;;;;;;;;5051579;28;20035;-80
2022/07/27 09:10:10;;;;;;;0.17;0.10;;;;;;;;;;5053536;28;20029;-81
2022/07/27 09:12:41;;;;;;;0.00;0.00;;;;;;;;;;5055795;28;20013;-82
2022/07/27 09:15:08;;;;;;;1.38;0.10;;;;;;;;;;5056078;28;20036;-81
2022/07/27 09:17:36;;;;;;;0.10;0.10;;;;;;;;;;5054991;28;20044;-81
2022/07/27 09:20:28;;;;;;;0.10;0.10;;;;;;;;;;5046290;28;20044;-78
2022/07/27 09:22:55;;;;;;;0.83;0.40;;;;;;;;;;5052533;28;20025;-79
2022/07/27 09:25:22;;;;;;;0.10;0.10;;;;;;;;;;5055365;28;20350;-78
2022/07/27 09:27:54;;;;;;;1.17;0.10;;;;;;;;;;5038245;28;20020;-79
2022/07/27 09:33:58;;;;;;;0.20;0.20;;;;;;;;;;4968652;28;20423;-78
2022/07/27 09:36:35;;;;;;;0.20;0.20;;;;;;;;;;4959831;28;20034;-79
2022/07/27 09:39:21;;;;;;;0.10;0.10;;;;;;;;;;4957689;28;20137;-79
2022/07/27 09:45:35;;;;;;;0.20;0.20;;;;;;;;;;4963413;28;20070;-79
2022/07/27 09:48:43;;;;;;;0.50;0.40;;;;;;;;;;4958162;28;20023;-79
2022/07/27 09:51:10;;;;;;;0.13;0.13;;;;;;;;;;4913150;29;20048;-82
2022/07/27 09:53:36;;;;;;;0.20;0.17;;;;;;;;;;4914652;29;20040;-80
2022/07/27 09:56:16;;;;;;;0.32;0.20;;;;;;;;;;4914351;29;20466;-81
2022/07/27 10:01:46;;;;;;;0.47;0.38;;;;;;;;;;4914129;29;20039;-83
2022/07/27 10:04:11;;;;;;;0.00;0.00;;;;;;;;;;4902251;29;20494;-83
2022/07/27 10:06:37;;;;;;;0.95;0.80;;;;;;;;;;4920786;29;20044;-82
2022/07/27 10:09:02;;;;;;;1.77;0.52;;;;;;;;;;4922345;28;20041;-82
2022/07/27 10:11:28;;;;;;;1.10;0.30;;;;;;;;;;4980593;28;20037;-75
2022/07/27 10:13:55;;;;;;;0.32;0.32;;;;;;;;;;5013856;28;20030;-73
2022/07/27 10:16:26;;;;;;;1.65;1.00;;;;;;;;;;4997650;28;20421;-73
2022/07/27 10:19:13;;;;;;;0.20;0.20;;;;;;;;;;5030257;28;20034;-75
2022/07/27 10:21:42;;;;;;;0.30;0.22;;;;;;;;;;5022671;28;20087;-73
2022/07/27 10:24:10;;;;;;;9.57;0.40;;;;;;;;;;5048398;28;20052;-74
2022/07/27 10:26:41;;;;;;;0.45;0.20;;;;;;;;;;5047758;28;20032;-72
2022/07/27 10:29:12;;;;;;;0.60;0.40;;;;;;;;;;5057154;28;20039;-72
2022/07/27 10:31:58;;;;;;;0.20;0.15;;;;;;;;;;5047922;28;20071;-74
2022/07/27 10:34:40;;;;;;;0.40;0.15;;;;;;;;;;5047132;28;20374;-74
2022/07/27 10:37:30;;;;;;;0.08;0.08;;;;;;;;;;5048331;28;20033;-75
2022/07/27 10:43:04;;;;;;;0.30;0.20;;;;;;;;;;5045754;28;20044;-74
2022/07/27 10:45:40;;;;;;;0.00;0.00;;;;;;;;;;5048243;28;20029;-73
2022/07/27 10:48:06;;;;;;;0.40;0.38;;;;;;;;;;5047781;28;20115;-69
2022/07/27 10:50:31;;;;;;;0.22;0.22;;;;;;;;;;5050215;28;20749;-74
2022/07/27 10:53:05;;;;;;;0.22;0.20;;;;;;;;;;5048760;28;20043;-72
2022/07/27 10:55:31;;;;;;;0.17;0.17;;;;;;;;;;5048343;28;20020;-73
2022/07/27 10:58:02;;;;;;;0.10;0.10;;;;;;;;;;5048844;28;20027;-74
2022/07/27 11:00:51;;;;;;;4.13;0.50;;;;;;;;;;5048464;28;20032;-75
2022/07/27 11:03:22;;;;;;;0.45;0.15;;;;;;;;;;5063731;28;20287;-74
2022/07/27 11:05:58;;;;;;;0.17;0.17;;;;;;;;;;5045751;28;20043;-73
2022/07/27 11:08:34;;;;;;;0.10;0.10;;;;;;;;;;5047005;28;20028;-73
2022/07/27 11:11:04;;;;;;;0.63;0.30;;;;;;;;;;5047219;28;20033;-74
2022/07/27 11:13:30;;;;;;;0.65;0.10;;;;;;;;;;5048425;28;20036;-76
2022/07/27 11:16:06;;;;;;;0.15;0.15;;;;;;;;;;5062646;28;20041;-73
2022/07/27 11:18:36;;;;;;;0.00;0.00;;;;;;;;;;5045691;28;20469;-73
2022/07/27 11:21:14;;;;;;;0.13;0.13;;;;;;;;;;5051036;28;20128;-75
2022/07/27 11:23:40;;;;;;;0.32;0.32;;;;;;;;;;5048374;28;20025;-74
2022/07/27 11:26:24;;;;;;;0.20;0.20;;;;;;;;;;5049787;28;20112;-76
2022/07/27 11:28:50;;;;;;;1.98;0.13;;;;;;;;;;5045814;28;20028;-73
2022/07/27 11:31:23;;;;;;;0.85;0.60;;;;;;;;;;5047528;28;20039;-74
2022/07/27 11:33:54;;;;;;;2.38;0.65;;;;;;;;;;5046630;28;20021;-73
2022/07/27 11:36:24;;;;;;;0.40;0.40;;;;;;;;;;5047844;28;20315;-74
2022/07/27 11:38:57;;;;;;;0.25;0.25;;;;;;;;;;5046241;28;20056;-77
2022/07/27 11:41:28;;;;;;;0.95;0.63;;;;;;;;;;5046979;28;20047;-76
2022/07/27 11:43:58;;;;;;;0.30;0.30;;;;;;;;;;5049891;28;20029;-73
2022/07/27 11:46:26;;;;;;;0.45;0.15;;;;;;;;;;5048827;28;20125;-74
2022/07/27 11:48:58;;;;;;;0.47;0.40;;;;;;;;;;5052174;28;20051;-75
2022/07/27 11:51:27;;;;;;;0.13;0.13;;;;;;;;;;5050617;28;20025;-74
2022/07/27 11:53:57;;;;;;;0.10;0.10;;;;;;;;;;5053080;28;20442;-75
2022/07/27 11:56:27;;;;;;;0.45;0.40;;;;;;;;;;5053175;28;20117;-75
2022/07/27 11:58:56;;;;;;;0.32;0.13;;;;;;;;;;5051137;28;20021;-74
2022/07/27 12:01:39;;;;;;;0.40;0.08;;;;;;;;;;5048603;28;20026;-75
2022/07/27 12:04:14;;;;;;;0.47;0.35;;;;;;;;;;5053934;28;20053;-74
2022/07/27 12:06:43;;;;;;;0.98;0.75;;;;;;;;;;5052800;28;20056;-73
2022/07/27 12:09:12;;;;;;;0.52;0.25;;;;;;;;;;5052682;28;20044;-75
2022/07/27 12:12:06;;;;;;;0.13;0.13;;;;;;;;;;5053191;28;20048;-76
2022/07/27 12:14:42;;;;;;;0.20;0.17;;;;;;;;;;5044557;28;20029;-75
2022/07/27 12:17:14;;;;;;;2.72;0.40;;;;;;;;;;5050496;28;20641;-80
2022/07/27 12:19:40;;;;;;;1.83;0.45;;;;;;;;;;5049269;28;20350;-80
2022/07/27 12:22:08;;;;;;;0.22;0.22;;;;;;;;;;5051975;28;20035;-80
2022/07/27 12:24:42;;;;;;;0.32;0.30;;;;;;;;;;5036462;28;20025;-78
2022/07/27 12:27:14;;;;;;;0.10;0.10;;;;;;;;;;5035995;28;20025;-78
2022/07/27 12:29:57;;;;;;;1.10;0.22;;;;;;;;;;5052295;28;20496;-78
2022/07/27 12:32:22;;;;;;;0.10;0.10;;;;;;;;;;5034436;28;20052;-78
2022/07/27 12:34:53;;;;;;;0.80;0.30;;;;;;;;;;5053592;28;20052;-78
2022/07/27 12:37:22;;;;;;;0.10;0.10;;;;;;;;;;5040871;28;20498;-79
2022/07/27 12:39:48;;;;;;;0.15;0.15;;;;;;;;;;5057653;28;20267;-78
2022/07/27 12:42:13;;;;;;;0.55;0.10;;;;;;;;;;5039533;28;20035;-78
2022/07/27 12:44:43;;;;;;;0.13;0.13;;;;;;;;;;5039142;28;20020;-78
2022/07/27 12:50:18;;;;;;;0.25;0.17;;;;;;;;;;5054979;28;20102;-78
2022/07/27 12:52:50;;;;;;;0.88;0.43;;;;;;;;;;5056339;28;20093;-78
2022/07/27 12:55:17;;;;;;;0.22;0.22;;;;;;;;;;5050412;28;20025;-79
2022/07/27 12:57:43;;;;;;;0.10;0.10;;;;;;;;;;5056308;28;20020;-78
2022/07/27 13:00:15;;;;;;;0.90;0.43;;;;;;;;;;5054935;28;20029;-78
2022/07/27 13:02:41;;;;;;;3.38;1.40;;;;;;;;;;5056068;28;20108;-78
2022/07/27 13:05:08;;;;;;;0.38;0.38;;;;;;;;;;5056209;28;20104;-78
2022/07/27 13:07:35;;;;;;;0.55;0.52;;;;;;;;;;5036990;28;20083;-78
2022/07/27 13:10:01;;;;;;;1.65;0.30;;;;;;;;;;5055952;28;20024;-79
2022/07/27 13:12:28;;;;;;;0.43;0.20;;;;;;;;;;5037539;28;20022;-78
2022/07/27 13:14:54;;;;;;;0.20;0.20;;;;;;;;;;5055136;28;20096;-78
2022/07/27 13:17:22;;;;;;;0.60;0.30;;;;;;;;;;5056258;28;20032;-77
2022/07/27 13:19:47;;;;;;;0.30;0.15;;;;;;;;;;5038600;28;20056;-78
2022/07/27 13:22:13;;;;;;;0.43;0.43;;;;;;;;;;5054814;28;20056;-77
2022/07/27 13:24:41;;;;;;;0.17;0.17;;;;;;;;;;5056971;28;20435;-78
2022/07/27 13:27:08;;;;;;;0.10;0.10;;;;;;;;;;5056638;28;20053;-78
2022/07/27 13:29:34;;;;;;;0.73;0.20;;;;;;;;;;5039462;28;20025;-79
2022/07/27 13:31:59;;;;;;;0.45;0.10;;;;;;;;;;5056540;28;20323;-78
2022/07/27 13:34:27;;;;;;;0.32;0.20;;;;;;;;;;5056265;28;20455;-79
2022/07/27 13:36:52;;;;;;;0.10;0.10;;;;;;;;;;5056134;28;20094;-78
2022/07/27 13:39:17;;;;;;;0.05;0.05;;;;;;;;;;5056452;28;20029;-78
2022/07/27 13:41:43;;;;;;;0.25;0.25;;;;;;;;;;5056397;28;20032;-79
2022/07/27 13:44:08;;;;;;;0.50;0.50;;;;;;;;;;5057669;28;20170;-79
2022/07/27 13:46:34;;;;;;;0.28;0.10;;;;;;;;;;5054769;28;20064;-78
2022/07/27 13:49:02;;;;;;;0.22;0.20;;;;;;;;;;5055418;28;20033;-78
2022/07/27 13:51:29;;;;;;;0.38;0.38;;;;;;;;;;5054804;28;20055;-78
2022/07/27 13:53:54;;;;;;;0.65;0.52;;;;;;;;;;5054864;28;20409;-79
2022/07/27 13:56:22;;;;;;;1.45;0.70;;;;;;;;;;5056070;28;20112;-78
2022/07/27 13:58:49;;;;;;;0.52;0.47;;;;;;;;;;5055135;28;20036;-79
2022/07/27 14:01:15;;;;;;;0.20;0.20;;;;;;;;;;5054076;28;20357;-78
2022/07/27 14:03:40;;;;;;;1.27;0.40;;;;;;;;;;5056012;28;20043;-78
2022/07/27 14:06:05;;;;;;;2.60;0.43;;;;;;;;;;5055288;28;20442;-78
2022/07/27 14:08:31;;;;;;;0.28;0.20;;;;;;;;;;5051308;28;20094;-78
2022/07/27 14:10:56;;;;;;;0.10;0.10;;;;;;;;;;5037668;28;20373;-78
2022/07/27 14:13:23;;;;;;;0.10;0.10;;;;;;;;;;5055494;28;20090;-79
2022/07/27 14:15:49;;;;;;;0.20;0.20;;;;;;;;;;5055334;28;20036;-78
2022/07/27 14:18:17;;;;;;;0.50;0.50;;;;;;;;;;5054821;28;20029;-79
2022/07/27 14:20:42;;;;;;;0.20;0.20;;;;;;;;;;5054934;28;20028;-78
2022/07/27 14:23:08;;;;;;;0.30;0.13;;;;;;;;;;5053839;28;20031;-78
2022/07/27 14:25:36;;;;;;;0.35;0.25;;;;;;;;;;5037828;28;20033;-77
2022/07/27 14:28:01;;;;;;;0.93;0.52;;;;;;;;;;5053995;28;20039;-79
2022/07/27 14:30:27;;;;;;;0.82;0.30;;;;;;;;;;5055372;28;20021;-79
2022/07/27 14:32:53;;;;;;;0.10;0.10;;;;;;;;;;5052746;28;20025;-79
2022/07/27 14:35:19;;;;;;;1.52;0.38;;;;;;;;;;5055419;28;20021;-78
2022/07/27 14:37:47;;;;;;;0.10;0.10;;;;;;;;;;5054495;28;20426;-78
2022/07/27 14:40:15;;;;;;;0.20;0.20;;;;;;;;;;5054527;28;20044;-78
2022/07/27 14:42:41;;;;;;;0.15;0.15;;;;;;;;;;5055198;28;20120;-78
2022/07/27 14:45:07;;;;;;;0.10;0.10;;;;;;;;;;5055309;28;20483;-78
2022/07/27 14:47:32;;;;;;;0.40;0.40;;;;;;;;;;5054607;28;20033;-78
2022/07/27 14:49:57;;;;;;;0.00;0.00;;;;;;;;;;5037875;28;20349;-78
2022/07/27 14:52:25;;;;;;;0.57;0.47;;;;;;;;;;5053274;28;20029;-78
2022/07/27 14:54:51;;;;;;;0.90;0.45;;;;;;;;;;5053973;28;20028;-78
2022/07/27 14:57:16;;;;;;;0.50;0.40;;;;;;;;;;5053398;28;20027;-77
2022/07/27 14:59:46;;;;;;;0.15;0.15;;;;;;;;;;5053899;28;20052;-78
2022/07/27 15:02:12;;;;;;;1.13;1.00;;;;;;;;;;5054726;28;20029;-78
2022/07/27 15:04:37;;;;;;;0.70;0.70;;;;;;;;;;5054814;28;20036;-77
2022/07/27 15:07:04;;;;;;;0.17;0.17;;;;;;;;;;5054820;28;20346;-78